sensor_id;sensor_type;location;lat;lon;timestamp;P1;durP1;ratioP1;P2;durP2;ratioP2
78116;SDS011;69042;59.120;37.904;2023-04-19T00:00:57;7.95;;;2.95;;
78116;SDS011;69042;59.120;37.904;2023-04-19T00:03:28;10.70;;;3.10;;
78116;SDS011;69042;59.120;37.904;2023-04-19T00:05:55;7.63;;;2.97;;
78116;SDS011;69042;59.120;37.904;2023-04-19T00:08:24;9.80;;;3.30;;
78116;SDS011;69042;59.120;37.904;2023-04-19T00:10:51;7.75;;;3.10;;
78116;SDS011;69042;59.120;37.904;2023-04-19T00:13:17;8.48;;;3.00;;
78116;SDS011;69042;59.120;37.904;2023-04-19T00:15:43;7.97;;;2.78;;
78116;SDS011;69042;59.120;37.904;2023-04-19T00:18:10;9.05;;;3.00;;
78116;SDS011;69042;59.120;37.904;2023-04-19T00:20:37;8.85;;;3.10;;
78116;SDS011;69042;59.120;37.904;2023-04-19T00:25:31;7.57;;;3.28;;
78116;SDS011;69042;59.120;37.904;2023-04-19T00:27:59;6.93;;;3.15;;
78116;SDS011;69042;59.120;37.904;2023-04-19T00:30:27;8.05;;;3.42;;
78116;SDS011;69042;59.120;37.904;2023-04-19T00:32:53;8.52;;;3.35;;
78116;SDS011;69042;59.120;37.904;2023-04-19T00:35:20;7.38;;;3.63;;
78116;SDS011;69042;59.120;37.904;2023-04-19T00:37:46;7.88;;;3.50;;
78116;SDS011;69042;59.120;37.904;2023-04-19T00:40:14;7.07;;;3.25;;
78116;SDS011;69042;59.120;37.904;2023-04-19T00:42:40;8.43;;;3.55;;
78116;SDS011;69042;59.120;37.904;2023-04-19T00:45:07;8.18;;;2.95;;
78116;SDS011;69042;59.120;37.904;2023-04-19T00:47:35;7.82;;;3.50;;
78116;SDS011;69042;59.120;37.904;2023-04-19T00:53:19;6.75;;;3.50;;
78116;SDS011;69042;59.120;37.904;2023-04-19T00:55:46;7.40;;;3.40;;
78116;SDS011;69042;59.120;37.904;2023-04-19T00:58:15;8.02;;;3.47;;
78116;SDS011;69042;59.120;37.904;2023-04-19T01:00:43;7.53;;;3.42;;
78116;SDS011;69042;59.120;37.904;2023-04-19T01:03:09;7.90;;;3.42;;
78116;SDS011;69042;59.120;37.904;2023-04-19T01:05:36;8.63;;;3.13;;
78116;SDS011;69042;59.120;37.904;2023-04-19T01:08:02;6.18;;;2.90;;
78116;SDS011;69042;59.120;37.904;2023-04-19T01:10:29;6.90;;;2.80;;
78116;SDS011;69042;59.120;37.904;2023-04-19T01:12:56;6.32;;;2.63;;
78116;SDS011;69042;59.120;37.904;2023-04-19T01:15:22;6.28;;;2.63;;
78116;SDS011;69042;59.120;37.904;2023-04-19T01:17:50;8.35;;;3.25;;
78116;SDS011;69042;59.120;37.904;2023-04-19T01:20:16;5.80;;;2.50;;
78116;SDS011;69042;59.120;37.904;2023-04-19T01:22:43;5.65;;;2.58;;
78116;SDS011;69042;59.120;37.904;2023-04-19T01:25:09;6.30;;;3.00;;
78116;SDS011;69042;59.120;37.904;2023-04-19T01:27:36;6.80;;;2.95;;
78116;SDS011;69042;59.120;37.904;2023-04-19T01:30:02;6.13;;;2.72;;
78116;SDS011;69042;59.120;37.904;2023-04-19T01:32:29;6.65;;;2.80;;
78116;SDS011;69042;59.120;37.904;2023-04-19T01:34:56;6.90;;;2.60;;
78116;SDS011;69042;59.120;37.904;2023-04-19T01:37:23;6.50;;;2.72;;
78116;SDS011;69042;59.120;37.904;2023-04-19T01:42:18;6.05;;;2.80;;
78116;SDS011;69042;59.120;37.904;2023-04-19T01:44:45;7.50;;;3.05;;
78116;SDS011;69042;59.120;37.904;2023-04-19T01:47:11;7.75;;;2.80;;
78116;SDS011;69042;59.120;37.904;2023-04-19T01:49:40;6.88;;;2.70;;
78116;SDS011;69042;59.120;37.904;2023-04-19T01:52:07;7.13;;;3.00;;
78116;SDS011;69042;59.120;37.904;2023-04-19T01:54:33;6.38;;;2.72;;
78116;SDS011;69042;59.120;37.904;2023-04-19T01:57:00;8.27;;;3.00;;
78116;SDS011;69042;59.120;37.904;2023-04-19T01:59:26;6.90;;;2.72;;
78116;SDS011;69042;59.120;37.904;2023-04-19T02:01:52;8.43;;;3.38;;
78116;SDS011;69042;59.120;37.904;2023-04-19T02:04:19;7.13;;;3.03;;
78116;SDS011;69042;59.120;37.904;2023-04-19T02:06:46;6.88;;;3.08;;
78116;SDS011;69042;59.120;37.904;2023-04-19T02:09:13;8.23;;;3.33;;
78116;SDS011;69042;59.120;37.904;2023-04-19T02:11:41;8.65;;;3.30;;
78116;SDS011;69042;59.120;37.904;2023-04-19T02:14:07;8.25;;;3.50;;
78116;SDS011;69042;59.120;37.904;2023-04-19T02:16:34;7.53;;;3.15;;
78116;SDS011;69042;59.120;37.904;2023-04-19T02:19:00;7.40;;;3.25;;
78116;SDS011;69042;59.120;37.904;2023-04-19T02:21:27;7.07;;;3.17;;
78116;SDS011;69042;59.120;37.904;2023-04-19T02:23:53;8.93;;;3.65;;
78116;SDS011;69042;59.120;37.904;2023-04-19T02:26:19;7.28;;;3.55;;
78116;SDS011;69042;59.120;37.904;2023-04-19T02:28:46;10.27;;;3.63;;
78116;SDS011;69042;59.120;37.904;2023-04-19T02:31:13;8.00;;;3.92;;
78116;SDS011;69042;59.120;37.904;2023-04-19T02:33:40;10.43;;;3.83;;
78116;SDS011;69042;59.120;37.904;2023-04-19T02:36:06;12.75;;;3.75;;
78116;SDS011;69042;59.120;37.904;2023-04-19T02:38:33;14.77;;;3.83;;
78116;SDS011;69042;59.120;37.904;2023-04-19T02:41:01;8.73;;;3.65;;
78116;SDS011;69042;59.120;37.904;2023-04-19T02:43:29;15.18;;;3.90;;
78116;SDS011;69042;59.120;37.904;2023-04-19T02:45:55;9.55;;;3.85;;
78116;SDS011;69042;59.120;37.904;2023-04-19T02:48:21;8.75;;;2.90;;
78116;SDS011;69042;59.120;37.904;2023-04-19T02:50:48;8.20;;;3.67;;
78116;SDS011;69042;59.120;37.904;2023-04-19T02:53:14;9.07;;;3.28;;
78116;SDS011;69042;59.120;37.904;2023-04-19T02:55:41;9.18;;;3.08;;
78116;SDS011;69042;59.120;37.904;2023-04-19T02:58:14;11.75;;;3.95;;
78116;SDS011;69042;59.120;37.904;2023-04-19T03:00:50;17.52;;;5.43;;
78116;SDS011;69042;59.120;37.904;2023-04-19T03:03:20;11.48;;;4.47;;
78116;SDS011;69042;59.120;37.904;2023-04-19T03:05:47;11.45;;;4.80;;
78116;SDS011;69042;59.120;37.904;2023-04-19T03:08:13;8.30;;;3.90;;
78116;SDS011;69042;59.120;37.904;2023-04-19T03:10:40;8.32;;;3.58;;
78116;SDS011;69042;59.120;37.904;2023-04-19T03:13:08;6.93;;;3.17;;
78116;SDS011;69042;59.120;37.904;2023-04-19T03:15:34;9.95;;;3.17;;
78116;SDS011;69042;59.120;37.904;2023-04-19T03:18:01;8.52;;;3.28;;
78116;SDS011;69042;59.120;37.904;2023-04-19T03:20:28;8.10;;;3.42;;
78116;SDS011;69042;59.120;37.904;2023-04-19T03:22:56;8.20;;;3.42;;
78116;SDS011;69042;59.120;37.904;2023-04-19T03:25:23;8.38;;;3.40;;
78116;SDS011;69042;59.120;37.904;2023-04-19T03:27:57;9.02;;;3.42;;
78116;SDS011;69042;59.120;37.904;2023-04-19T03:30:44;6.80;;;3.20;;
78116;SDS011;69042;59.120;37.904;2023-04-19T03:33:11;7.80;;;3.67;;
78116;SDS011;69042;59.120;37.904;2023-04-19T03:35:39;7.78;;;3.60;;
78116;SDS011;69042;59.120;37.904;2023-04-19T03:38:11;10.45;;;3.80;;
78116;SDS011;69042;59.120;37.904;2023-04-19T03:40:37;11.98;;;4.03;;
78116;SDS011;69042;59.120;37.904;2023-04-19T03:43:04;13.15;;;4.63;;
78116;SDS011;69042;59.120;37.904;2023-04-19T03:45:33;13.55;;;5.13;;
78116;SDS011;69042;59.120;37.904;2023-04-19T03:48:00;15.32;;;4.60;;
78116;SDS011;69042;59.120;37.904;2023-04-19T03:50:26;15.63;;;4.88;;
78116;SDS011;69042;59.120;37.904;2023-04-19T03:52:55;14.77;;;5.70;;
78116;SDS011;69042;59.120;37.904;2023-04-19T03:55:21;21.48;;;6.57;;
78116;SDS011;69042;59.120;37.904;2023-04-19T03:57:48;13.88;;;4.78;;
78116;SDS011;69042;59.120;37.904;2023-04-19T04:00:27;15.15;;;5.25;;
78116;SDS011;69042;59.120;37.904;2023-04-19T04:02:58;20.33;;;4.65;;
78116;SDS011;69042;59.120;37.904;2023-04-19T04:05:26;14.32;;;4.60;;
78116;SDS011;69042;59.120;37.904;2023-04-19T04:07:54;19.83;;;5.47;;
78116;SDS011;69042;59.120;37.904;2023-04-19T04:10:22;12.25;;;5.10;;
78116;SDS011;69042;59.120;37.904;2023-04-19T04:12:48;15.18;;;5.45;;
78116;SDS011;69042;59.120;37.904;2023-04-19T04:15:21;16.90;;;5.35;;
78116;SDS011;69042;59.120;37.904;2023-04-19T04:17:52;23.05;;;5.80;;
78116;SDS011;69042;59.120;37.904;2023-04-19T04:20:19;16.80;;;6.10;;
78116;SDS011;69042;59.120;37.904;2023-04-19T04:22:46;21.98;;;6.22;;
78116;SDS011;69042;59.120;37.904;2023-04-19T04:25:15;22.50;;;6.15;;
78116;SDS011;69042;59.120;37.904;2023-04-19T04:27:42;22.83;;;6.35;;
78116;SDS011;69042;59.120;37.904;2023-04-19T04:30:12;15.70;;;5.97;;
78116;SDS011;69042;59.120;37.904;2023-04-19T04:32:39;21.23;;;5.97;;
78116;SDS011;69042;59.120;37.904;2023-04-19T04:35:06;18.17;;;6.10;;
78116;SDS011;69042;59.120;37.904;2023-04-19T04:37:57;18.17;;;5.85;;
78116;SDS011;69042;59.120;37.904;2023-04-19T04:40:25;23.70;;;5.60;;
78116;SDS011;69042;59.120;37.904;2023-04-19T04:42:52;16.92;;;5.50;;
78116;SDS011;69042;59.120;37.904;2023-04-19T04:45:19;17.30;;;5.47;;
78116;SDS011;69042;59.120;37.904;2023-04-19T04:47:49;16.33;;;5.15;;
78116;SDS011;69042;59.120;37.904;2023-04-19T04:50:17;13.27;;;5.43;;
78116;SDS011;69042;59.120;37.904;2023-04-19T04:52:44;17.00;;;4.93;;
78116;SDS011;69042;59.120;37.904;2023-04-19T04:55:18;13.63;;;5.30;;
78116;SDS011;69042;59.120;37.904;2023-04-19T04:57:44;14.98;;;5.57;;
78116;SDS011;69042;59.120;37.904;2023-04-19T05:00:17;16.55;;;5.70;;
78116;SDS011;69042;59.120;37.904;2023-04-19T05:02:53;17.15;;;6.80;;
78116;SDS011;69042;59.120;37.904;2023-04-19T05:07:48;17.60;;;5.93;;
78116;SDS011;69042;59.120;37.904;2023-04-19T05:10:15;12.55;;;5.18;;
78116;SDS011;69042;59.120;37.904;2023-04-19T05:12:44;9.63;;;5.03;;
78116;SDS011;69042;59.120;37.904;2023-04-19T05:15:11;11.20;;;5.07;;
78116;SDS011;69042;59.120;37.904;2023-04-19T05:17:42;17.13;;;5.35;;
78116;SDS011;69042;59.120;37.904;2023-04-19T05:20:09;12.13;;;5.47;;
78116;SDS011;69042;59.120;37.904;2023-04-19T05:22:36;15.63;;;4.90;;
78116;SDS011;69042;59.120;37.904;2023-04-19T05:25:05;13.23;;;5.40;;
78116;SDS011;69042;59.120;37.904;2023-04-19T05:27:32;14.23;;;5.85;;
78116;SDS011;69042;59.120;37.904;2023-04-19T05:29:59;26.23;;;5.65;;
78116;SDS011;69042;59.120;37.904;2023-04-19T05:32:25;14.23;;;5.05;;
78116;SDS011;69042;59.120;37.904;2023-04-19T05:34:56;16.40;;;4.70;;
78116;SDS011;69042;59.120;37.904;2023-04-19T05:37:22;15.00;;;5.22;;
78116;SDS011;69042;59.120;37.904;2023-04-19T05:39:50;14.80;;;6.00;;
78116;SDS011;69042;59.120;37.904;2023-04-19T05:42:19;18.98;;;6.72;;
78116;SDS011;69042;59.120;37.904;2023-04-19T05:44:46;18.75;;;6.75;;
78116;SDS011;69042;59.120;37.904;2023-04-19T05:47:15;14.77;;;6.32;;
78116;SDS011;69042;59.120;37.904;2023-04-19T05:50:10;21.60;;;6.35;;
78116;SDS011;69042;59.120;37.904;2023-04-19T05:52:44;13.52;;;5.65;;
78116;SDS011;69042;59.120;37.904;2023-04-19T05:55:10;14.70;;;4.97;;
78116;SDS011;69042;59.120;37.904;2023-04-19T05:57:41;17.98;;;5.97;;
78116;SDS011;69042;59.120;37.904;2023-04-19T06:00:08;17.75;;;6.10;;
78116;SDS011;69042;59.120;37.904;2023-04-19T06:02:58;15.13;;;5.25;;
78116;SDS011;69042;59.120;37.904;2023-04-19T06:05:25;14.73;;;4.85;;
78116;SDS011;69042;59.120;37.904;2023-04-19T06:07:57;14.60;;;4.93;;
78116;SDS011;69042;59.120;37.904;2023-04-19T06:10:25;16.42;;;4.90;;
78116;SDS011;69042;59.120;37.904;2023-04-19T06:12:52;18.33;;;4.90;;
78116;SDS011;69042;59.120;37.904;2023-04-19T06:15:18;12.18;;;4.78;;
78116;SDS011;69042;59.120;37.904;2023-04-19T06:17:46;14.13;;;4.07;;
78116;SDS011;69042;59.120;37.904;2023-04-19T06:20:12;11.50;;;4.57;;
78116;SDS011;69042;59.120;37.904;2023-04-19T06:22:43;12.45;;;4.28;;
78116;SDS011;69042;59.120;37.904;2023-04-19T06:25:11;9.35;;;4.50;;
78116;SDS011;69042;59.120;37.904;2023-04-19T06:27:38;11.15;;;4.72;;
78116;SDS011;69042;59.120;37.904;2023-04-19T06:30:04;11.18;;;4.70;;
78116;SDS011;69042;59.120;37.904;2023-04-19T06:32:31;12.75;;;4.80;;
78116;SDS011;69042;59.120;37.904;2023-04-19T06:34:59;14.18;;;5.75;;
78116;SDS011;69042;59.120;37.904;2023-04-19T06:37:25;13.55;;;4.60;;
78116;SDS011;69042;59.120;37.904;2023-04-19T06:39:51;9.02;;;4.38;;
78116;SDS011;69042;59.120;37.904;2023-04-19T06:42:18;8.80;;;3.70;;
78116;SDS011;69042;59.120;37.904;2023-04-19T06:44:46;9.35;;;3.78;;
78116;SDS011;69042;59.120;37.904;2023-04-19T06:47:13;10.60;;;3.80;;
78116;SDS011;69042;59.120;37.904;2023-04-19T06:49:39;12.45;;;3.60;;
78116;SDS011;69042;59.120;37.904;2023-04-19T06:52:06;12.13;;;3.90;;
78116;SDS011;69042;59.120;37.904;2023-04-19T06:54:32;9.63;;;3.65;;
78116;SDS011;69042;59.120;37.904;2023-04-19T06:57:00;13.57;;;5.53;;
78116;SDS011;69042;59.120;37.904;2023-04-19T06:59:27;14.43;;;4.95;;
78116;SDS011;69042;59.120;37.904;2023-04-19T07:01:56;11.77;;;3.92;;
78116;SDS011;69042;59.120;37.904;2023-04-19T07:04:24;7.15;;;3.45;;
78116;SDS011;69042;59.120;37.904;2023-04-19T07:06:51;9.80;;;3.97;;
78116;SDS011;69042;59.120;37.904;2023-04-19T07:09:18;8.95;;;4.07;;
78116;SDS011;69042;59.120;37.904;2023-04-19T07:11:45;10.27;;;3.65;;
78116;SDS011;69042;59.120;37.904;2023-04-19T07:14:14;9.55;;;3.60;;
78116;SDS011;69042;59.120;37.904;2023-04-19T07:16:44;9.52;;;3.60;;
78116;SDS011;69042;59.120;37.904;2023-04-19T07:19:11;12.32;;;4.70;;
78116;SDS011;69042;59.120;37.904;2023-04-19T07:21:39;8.98;;;4.00;;
78116;SDS011;69042;59.120;37.904;2023-04-19T07:24:08;7.80;;;3.50;;
78116;SDS011;69042;59.120;37.904;2023-04-19T07:26:34;7.10;;;3.53;;
78116;SDS011;69042;59.120;37.904;2023-04-19T07:29:01;12.30;;;4.45;;
78116;SDS011;69042;59.120;37.904;2023-04-19T07:31:28;9.68;;;4.45;;
78116;SDS011;69042;59.120;37.904;2023-04-19T07:33:55;8.35;;;3.47;;
78116;SDS011;69042;59.120;37.904;2023-04-19T07:36:22;23.60;;;4.30;;
78116;SDS011;69042;59.120;37.904;2023-04-19T07:38:49;7.40;;;3.35;;
78116;SDS011;69042;59.120;37.904;2023-04-19T07:41:16;8.05;;;3.30;;
78116;SDS011;69042;59.120;37.904;2023-04-19T07:43:42;10.23;;;3.40;;
78116;SDS011;69042;59.120;37.904;2023-04-19T07:46:09;7.85;;;3.15;;
78116;SDS011;69042;59.120;37.904;2023-04-19T07:48:36;11.00;;;3.30;;
78116;SDS011;69042;59.120;37.904;2023-04-19T07:51:09;7.90;;;3.10;;
78116;SDS011;69042;59.120;37.904;2023-04-19T07:53:38;6.50;;;2.83;;
78116;SDS011;69042;59.120;37.904;2023-04-19T07:56:06;8.38;;;3.38;;
78116;SDS011;69042;59.120;37.904;2023-04-19T07:58:34;7.97;;;3.03;;
78116;SDS011;69042;59.120;37.904;2023-04-19T08:01:01;8.02;;;2.83;;
78116;SDS011;69042;59.120;37.904;2023-04-19T08:03:29;9.43;;;2.90;;
78116;SDS011;69042;59.120;37.904;2023-04-19T08:05:57;7.28;;;2.90;;
78116;SDS011;69042;59.120;37.904;2023-04-19T08:08:23;8.65;;;2.80;;
78116;SDS011;69042;59.120;37.904;2023-04-19T08:10:51;6.32;;;2.60;;
78116;SDS011;69042;59.120;37.904;2023-04-19T08:13:20;8.32;;;2.90;;
78116;SDS011;69042;59.120;37.904;2023-04-19T08:15:46;9.68;;;3.10;;
78116;SDS011;69042;59.120;37.904;2023-04-19T08:18:12;7.32;;;2.83;;
78116;SDS011;69042;59.120;37.904;2023-04-19T08:20:39;12.95;;;3.38;;
78116;SDS011;69042;59.120;37.904;2023-04-19T08:23:08;7.25;;;2.75;;
78116;SDS011;69042;59.120;37.904;2023-04-19T08:25:38;7.40;;;2.92;;
78116;SDS011;69042;59.120;37.904;2023-04-19T08:28:04;10.73;;;2.97;;
78116;SDS011;69042;59.120;37.904;2023-04-19T08:30:31;7.05;;;2.47;;
78116;SDS011;69042;59.120;37.904;2023-04-19T08:32:57;6.65;;;2.60;;
78116;SDS011;69042;59.120;37.904;2023-04-19T08:35:25;9.93;;;2.83;;
78116;SDS011;69042;59.120;37.904;2023-04-19T08:37:51;5.78;;;2.50;;
78116;SDS011;69042;59.120;37.904;2023-04-19T08:40:18;13.60;;;2.88;;
78116;SDS011;69042;59.120;37.904;2023-04-19T08:42:45;7.88;;;2.90;;
78116;SDS011;69042;59.120;37.904;2023-04-19T08:45:12;5.63;;;2.20;;
78116;SDS011;69042;59.120;37.904;2023-04-19T08:47:41;6.57;;;2.53;;
78116;SDS011;69042;59.120;37.904;2023-04-19T08:50:09;8.73;;;2.50;;
78116;SDS011;69042;59.120;37.904;2023-04-19T08:52:36;8.32;;;2.40;;
78116;SDS011;69042;59.120;37.904;2023-04-19T08:55:05;10.20;;;2.28;;
78116;SDS011;69042;59.120;37.904;2023-04-19T08:57:34;7.00;;;2.00;;
78116;SDS011;69042;59.120;37.904;2023-04-19T09:00:02;5.35;;;2.08;;
78116;SDS011;69042;59.120;37.904;2023-04-19T09:03:09;6.90;;;2.45;;
78116;SDS011;69042;59.120;37.904;2023-04-19T09:05:33;10.02;;;2.42;;
78116;SDS011;69042;59.120;37.904;2023-04-19T09:08:20;7.43;;;2.80;;
78116;SDS011;69042;59.120;37.904;2023-04-19T09:10:51;6.60;;;2.35;;
78116;SDS011;69042;59.120;37.904;2023-04-19T09:13:19;8.30;;;2.50;;
78116;SDS011;69042;59.120;37.904;2023-04-19T09:15:46;8.18;;;2.60;;
78116;SDS011;69042;59.120;37.904;2023-04-19T09:18:12;8.55;;;2.70;;
78116;SDS011;69042;59.120;37.904;2023-04-19T09:23:08;9.20;;;2.85;;
78116;SDS011;69042;59.120;37.904;2023-04-19T09:25:37;10.00;;;2.00;;
78116;SDS011;69042;59.120;37.904;2023-04-19T09:28:11;6.20;;;2.30;;
78116;SDS011;69042;59.120;37.904;2023-04-19T09:30:39;8.05;;;2.20;;
78116;SDS011;69042;59.120;37.904;2023-04-19T09:33:06;6.95;;;2.15;;
78116;SDS011;69042;59.120;37.904;2023-04-19T09:38:15;6.82;;;2.00;;
78116;SDS011;69042;59.120;37.904;2023-04-19T09:40:42;9.63;;;2.17;;
78116;SDS011;69042;59.120;37.904;2023-04-19T09:43:12;8.48;;;2.70;;
78116;SDS011;69042;59.120;37.904;2023-04-19T09:45:39;8.23;;;2.70;;
78116;SDS011;69042;59.120;37.904;2023-04-19T09:48:06;6.20;;;2.58;;
78116;SDS011;69042;59.120;37.904;2023-04-19T09:50:34;7.47;;;2.40;;
78116;SDS011;69042;59.120;37.904;2023-04-19T09:53:02;6.55;;;3.20;;
78116;SDS011;69042;59.120;37.904;2023-04-19T09:55:29;11.93;;;2.92;;
78116;SDS011;69042;59.120;37.904;2023-04-19T09:57:56;6.20;;;2.28;;
78116;SDS011;69042;59.120;37.904;2023-04-19T10:00:23;8.20;;;2.53;;
78116;SDS011;69042;59.120;37.904;2023-04-19T10:02:50;9.43;;;2.45;;
78116;SDS011;69042;59.120;37.904;2023-04-19T10:05:22;8.35;;;2.63;;
78116;SDS011;69042;59.120;37.904;2023-04-19T10:07:50;11.32;;;2.25;;
78116;SDS011;69042;59.120;37.904;2023-04-19T10:10:18;9.38;;;2.05;;
78116;SDS011;69042;59.120;37.904;2023-04-19T10:12:48;13.18;;;3.28;;
78116;SDS011;69042;59.120;37.904;2023-04-19T10:15:18;6.07;;;2.13;;
78116;SDS011;69042;59.120;37.904;2023-04-19T10:17:46;6.13;;;2.15;;
78116;SDS011;69042;59.120;37.904;2023-04-19T10:20:21;6.15;;;2.40;;
78116;SDS011;69042;59.120;37.904;2023-04-19T10:22:52;7.28;;;2.25;;
78116;SDS011;69042;59.120;37.904;2023-04-19T10:25:19;4.47;;;2.03;;
78116;SDS011;69042;59.120;37.904;2023-04-19T10:27:54;7.97;;;2.13;;
78116;SDS011;69042;59.120;37.904;2023-04-19T10:30:21;8.82;;;2.10;;
78116;SDS011;69042;59.120;37.904;2023-04-19T10:32:59;6.07;;;2.00;;
78116;SDS011;69042;59.120;37.904;2023-04-19T10:35:32;7.50;;;2.30;;
78116;SDS011;69042;59.120;37.904;2023-04-19T10:38:01;6.78;;;2.38;;
78116;SDS011;69042;59.120;37.904;2023-04-19T10:43:23;7.38;;;3.05;;
78116;SDS011;69042;59.120;37.904;2023-04-19T10:45:50;7.25;;;2.10;;
78116;SDS011;69042;59.120;37.904;2023-04-19T10:50:57;6.68;;;2.20;;
78116;SDS011;69042;59.120;37.904;2023-04-19T10:53:43;8.52;;;1.90;;
78116;SDS011;69042;59.120;37.904;2023-04-19T10:56:16;5.72;;;1.90;;
78116;SDS011;69042;59.120;37.904;2023-04-19T11:01:32;9.75;;;2.25;;
78116;SDS011;69042;59.120;37.904;2023-04-19T11:06:37;6.05;;;2.30;;
78116;SDS011;69042;59.120;37.904;2023-04-19T11:09:26;4.90;;;1.83;;
78116;SDS011;69042;59.120;37.904;2023-04-19T11:11:53;7.43;;;2.00;;
78116;SDS011;69042;59.120;37.904;2023-04-19T11:14:24;4.50;;;1.98;;
78116;SDS011;69042;59.120;37.904;2023-04-19T11:16:52;10.20;;;2.75;;
78116;SDS011;69042;59.120;37.904;2023-04-19T11:19:18;6.63;;;1.95;;
78116;SDS011;69042;59.120;37.904;2023-04-19T11:21:45;5.07;;;1.90;;
78116;SDS011;69042;59.120;37.904;2023-04-19T11:24:12;5.18;;;1.90;;
78116;SDS011;69042;59.120;37.904;2023-04-19T11:26:44;8.05;;;1.80;;
78116;SDS011;69042;59.120;37.904;2023-04-19T11:29:11;8.02;;;2.40;;
78116;SDS011;69042;59.120;37.904;2023-04-19T11:31:38;6.78;;;2.40;;
78116;SDS011;69042;59.120;37.904;2023-04-19T11:34:04;11.77;;;2.60;;
78116;SDS011;69042;59.120;37.904;2023-04-19T11:36:31;6.95;;;2.60;;
78116;SDS011;69042;59.120;37.904;2023-04-19T11:39:00;10.65;;;2.80;;
78116;SDS011;69042;59.120;37.904;2023-04-19T11:41:27;7.72;;;2.20;;
78116;SDS011;69042;59.120;37.904;2023-04-19T11:43:53;7.65;;;2.40;;
78116;SDS011;69042;59.120;37.904;2023-04-19T11:46:20;6.63;;;2.42;;
78116;SDS011;69042;59.120;37.904;2023-04-19T11:48:52;6.97;;;2.28;;
78116;SDS011;69042;59.120;37.904;2023-04-19T11:51:21;6.47;;;2.33;;
78116;SDS011;69042;59.120;37.904;2023-04-19T11:53:48;8.18;;;2.83;;
78116;SDS011;69042;59.120;37.904;2023-04-19T11:56:14;6.70;;;2.40;;
78116;SDS011;69042;59.120;37.904;2023-04-19T11:58:45;6.75;;;2.30;;
78116;SDS011;69042;59.120;37.904;2023-04-19T12:01:18;4.40;;;2.10;;
78116;SDS011;69042;59.120;37.904;2023-04-19T12:06:16;9.25;;;2.95;;
78116;SDS011;69042;59.120;37.904;2023-04-19T12:08:48;7.45;;;2.40;;
78116;SDS011;69042;59.120;37.904;2023-04-19T12:11:16;6.57;;;2.40;;
78116;SDS011;69042;59.120;37.904;2023-04-19T12:13:48;6.03;;;2.65;;
78116;SDS011;69042;59.120;37.904;2023-04-19T12:16:33;7.00;;;2.28;;
78116;SDS011;69042;59.120;37.904;2023-04-19T12:18:59;5.32;;;2.10;;
78116;SDS011;69042;59.120;37.904;2023-04-19T12:21:38;7.50;;;3.10;;
78116;SDS011;69042;59.120;37.904;2023-04-19T12:24:06;8.27;;;3.10;;
78116;SDS011;69042;59.120;37.904;2023-04-19T12:26:32;5.95;;;2.67;;
78116;SDS011;69042;59.120;37.904;2023-04-19T12:31:27;5.63;;;2.53;;
78116;SDS011;69042;59.120;37.904;2023-04-19T12:33:56;6.38;;;2.33;;
78116;SDS011;69042;59.120;37.904;2023-04-19T12:36:23;5.72;;;2.10;;
78116;SDS011;69042;59.120;37.904;2023-04-19T12:38:50;4.95;;;2.08;;
78116;SDS011;69042;59.120;37.904;2023-04-19T12:43:44;6.82;;;2.22;;
78116;SDS011;69042;59.120;37.904;2023-04-19T12:46:11;7.35;;;2.60;;
78116;SDS011;69042;59.120;37.904;2023-04-19T12:48:37;5.38;;;2.15;;
78116;SDS011;69042;59.120;37.904;2023-04-19T12:51:04;9.25;;;1.95;;
78116;SDS011;69042;59.120;37.904;2023-04-19T12:53:31;7.32;;;2.53;;
78116;SDS011;69042;59.120;37.904;2023-04-19T12:55:59;6.72;;;2.20;;
78116;SDS011;69042;59.120;37.904;2023-04-19T12:58:25;4.95;;;2.00;;
78116;SDS011;69042;59.120;37.904;2023-04-19T13:00:53;4.53;;;2.10;;
78116;SDS011;69042;59.120;37.904;2023-04-19T13:03:20;5.32;;;2.13;;
78116;SDS011;69042;59.120;37.904;2023-04-19T13:05:46;5.53;;;1.90;;
78116;SDS011;69042;59.120;37.904;2023-04-19T13:08:14;7.63;;;2.00;;
78116;SDS011;69042;59.120;37.904;2023-04-19T13:10:42;5.82;;;2.20;;
78116;SDS011;69042;59.120;37.904;2023-04-19T13:13:08;8.65;;;2.10;;
78116;SDS011;69042;59.120;37.904;2023-04-19T13:15:35;8.27;;;2.35;;
78116;SDS011;69042;59.120;37.904;2023-04-19T13:18:01;7.00;;;2.25;;
78116;SDS011;69042;59.120;37.904;2023-04-19T13:20:27;7.05;;;2.20;;
78116;SDS011;69042;59.120;37.904;2023-04-19T13:22:54;6.22;;;2.03;;
78116;SDS011;69042;59.120;37.904;2023-04-19T13:25:20;8.38;;;2.10;;
78116;SDS011;69042;59.120;37.904;2023-04-19T13:27:47;6.53;;;1.90;;
78116;SDS011;69042;59.120;37.904;2023-04-19T13:30:13;6.47;;;2.50;;
78116;SDS011;69042;59.120;37.904;2023-04-19T13:32:41;6.53;;;2.45;;
78116;SDS011;69042;59.120;37.904;2023-04-19T13:35:10;4.55;;;2.10;;
78116;SDS011;69042;59.120;37.904;2023-04-19T13:37:37;5.78;;;1.95;;
78116;SDS011;69042;59.120;37.904;2023-04-19T13:40:07;7.95;;;2.25;;
78116;SDS011;69042;59.120;37.904;2023-04-19T13:42:35;5.03;;;2.30;;
78116;SDS011;69042;59.120;37.904;2023-04-19T13:45:01;6.25;;;2.38;;
78116;SDS011;69042;59.120;37.904;2023-04-19T13:49:55;9.23;;;2.70;;
78116;SDS011;69042;59.120;37.904;2023-04-19T13:52:25;8.45;;;2.50;;
78116;SDS011;69042;59.120;37.904;2023-04-19T13:54:51;12.00;;;2.83;;
78116;SDS011;69042;59.120;37.904;2023-04-19T13:57:20;15.70;;;3.25;;
78116;SDS011;69042;59.120;37.904;2023-04-19T13:59:46;5.90;;;2.22;;
78116;SDS011;69042;59.120;37.904;2023-04-19T14:02:16;9.73;;;2.42;;
78116;SDS011;69042;59.120;37.904;2023-04-19T14:04:42;9.15;;;2.33;;
78116;SDS011;69042;59.120;37.904;2023-04-19T14:07:08;7.18;;;2.22;;
78116;SDS011;69042;59.120;37.904;2023-04-19T14:09:35;7.03;;;2.60;;
78116;SDS011;69042;59.120;37.904;2023-04-19T14:12:02;7.68;;;4.10;;
78116;SDS011;69042;59.120;37.904;2023-04-19T14:14:31;7.65;;;3.67;;
78116;SDS011;69042;59.120;37.904;2023-04-19T14:19:28;7.95;;;3.00;;
78116;SDS011;69042;59.120;37.904;2023-04-19T14:21:56;6.85;;;2.83;;
78116;SDS011;69042;59.120;37.904;2023-04-19T14:24:22;6.22;;;2.60;;
78116;SDS011;69042;59.120;37.904;2023-04-19T14:26:48;10.60;;;2.78;;
78116;SDS011;69042;59.120;37.904;2023-04-19T14:29:15;12.38;;;2.95;;
78116;SDS011;69042;59.120;37.904;2023-04-19T14:31:43;10.13;;;2.42;;
78116;SDS011;69042;59.120;37.904;2023-04-19T14:34:10;9.82;;;3.40;;
78116;SDS011;69042;59.120;37.904;2023-04-19T14:36:36;8.80;;;2.80;;
78116;SDS011;69042;59.120;37.904;2023-04-19T14:39:02;7.32;;;3.13;;
78116;SDS011;69042;59.120;37.904;2023-04-19T14:43:57;7.78;;;2.88;;
78116;SDS011;69042;59.120;37.904;2023-04-19T14:46:23;8.52;;;3.00;;
78116;SDS011;69042;59.120;37.904;2023-04-19T14:48:51;7.07;;;2.47;;
78116;SDS011;69042;59.120;37.904;2023-04-19T14:51:18;6.88;;;2.25;;
78116;SDS011;69042;59.120;37.904;2023-04-19T14:53:45;7.68;;;2.50;;
78116;SDS011;69042;59.120;37.904;2023-04-19T14:56:11;6.60;;;2.33;;
78116;SDS011;69042;59.120;37.904;2023-04-19T14:58:42;7.93;;;2.40;;
78116;SDS011;69042;59.120;37.904;2023-04-19T15:01:12;9.32;;;3.00;;
78116;SDS011;69042;59.120;37.904;2023-04-19T15:03:40;9.02;;;3.03;;
78116;SDS011;69042;59.120;37.904;2023-04-19T15:06:06;5.75;;;2.97;;
78116;SDS011;69042;59.120;37.904;2023-04-19T15:08:34;7.90;;;2.90;;
78116;SDS011;69042;59.120;37.904;2023-04-19T15:11:01;7.13;;;2.50;;
78116;SDS011;69042;59.120;37.904;2023-04-19T15:13:28;8.95;;;2.50;;
78116;SDS011;69042;59.120;37.904;2023-04-19T15:15:55;8.27;;;2.35;;
78116;SDS011;69042;59.120;37.904;2023-04-19T15:18:22;6.18;;;2.70;;